Flight Track Log - Related Links

Times and Time Zones

All times are in EDT time to prevent confusion due to time zone crossing. See the ASQ1354 flight status page for this flight to view local times or setup timezone preferences in your user account.

Time Position Orientation Groundspeed Altitude Reporting Facility
EDT Latitude Longitude Course Direction KTS MPH feet Rate Location/Type
Sat 02:02:08 PM 25.7981 -80.2744 83° East 163 188 700  Level Miami Center
Sat 02:03:27 PM 25.8061 -80.1964 83° East 226 260 3,900 2,552 Climbing Miami Center
Sat 02:04:22 PM 25.8244 -80.1322 72° East 244 281 6,400 1,706 Climbing Miami Center
Sat 02:05:16 PM 25.8875 -80.1131 15° North 286 329 7,000 316 Climbing Miami Center
Sat 02:06:16 PM 25.9689 -80.1200 356° North 289 333 7,000 372 Level Miami Center
Sat 02:07:25 PM 26.0497 -80.1475 343° North 274 315 7,800 1,550 Climbing Miami Center
Sat 02:08:16 PM 26.0586 -80.2125 279° West 289 333 10,100 2,866 Climbing Miami Center
Sat 02:08:32 PM 26.0517 -80.2378 253° West 284 327 11,000 2,200 Climbing Miami Center
Sat 02:09:16 PM 26.0525 -80.2978 271° West 310 357 12,300 1,846 Climbing Miami Center
Sat 02:10:16 PM 26.1283 -80.3581 324° Northwest 336 387 14,200 1,650 Climbing Miami Center
Sat 02:11:16 PM 26.2125 -80.4161 328° Northwest 359 413 15,600 1,350 Climbing Miami Center
Sat 02:12:16 PM 26.2992 -80.4650 333° Northwest 376 433 16,900 1,700 Climbing Miami Center
Sat 02:13:16 PM 26.4106 -80.5169 337° Northwest 390 449 19,000 1,950 Climbing Miami Center
Sat 02:14:16 PM 26.4992 -80.5617 336° Northwest 390 449 20,800 1,000 Climbing Miami Center
Sat 02:15:16 PM 26.6147 -80.6139 338° Northwest 397 457 21,000 100 Climbing Miami Center
Sat 02:16:16 PM 26.7253 -80.6222 356° North 420 483 21,000  Level Miami Center
Sat 02:17:16 PM 26.8503 -80.6308 356° North 437 503 21,000 500 Level Miami Center
Sat 02:18:16 PM 26.9672 -80.6347 358° North 437 503 22,000 500 Climbing Miami Center
Sat 02:19:16 PM 27.0925 -80.6386 358° North 437 503 22,000  Level Miami Center
Sat 02:20:16 PM 27.2089 -80.6517 354° North 432 497 22,000 650 Level Miami Center
Sat 02:21:16 PM 27.3161 -80.7044 336° Northwest 414 476 23,300 1,450 Climbing Miami Center
Sat 02:22:16 PM 27.4211 -80.7569 336° Northwest 414 476 24,900 850 Climbing Miami Center
Sat 02:23:16 PM 27.5283 -80.8097 336° Northwest 414 476 25,000 50 Climbing Miami Center
Sat 02:24:16 PM 27.6417 -80.8678 336° Northwest 425 489 25,000  Level Miami Center
Sat 02:25:16 PM 27.7525 -80.9278 334° Northwest 431 496 25,000  Level Miami Center
Sat 02:26:16 PM 27.8700 -80.9861 336° Northwest 447 514 25,000  Level Miami Center
Sat 02:27:16 PM 27.9831 -81.0442 336° Northwest 447 514 25,000  Level Miami Center
Sat 02:28:16 PM 28.1083 -81.1100 335° Northwest 447 514 25,000  Level Miami Center
Sat 02:29:16 PM 28.2233 -81.1708 335° Northwest 447 514 25,000  Level Miami Center
Sat 02:30:16 PM 28.3383 -81.2319 335° Northwest 447 514 25,000  Level Miami Center
Sat 02:31:31 PM 28.4739 -81.3008 336° Northwest 453 521 25,000  Level Jacksonville Center
Sat 02:32:31 PM 28.5956 -81.3439 343° North 448 516 25,000  Level Jacksonville Center
Sat 02:33:31 PM 28.7250 -81.3536 356° North 453 521 25,000  Level Jacksonville Center
Sat 02:34:31 PM 28.8567 -81.3683 354° North 458 527 25,000  Level Jacksonville Center
Sat 02:35:32 PM 28.9742 -81.4117 342° North 452 520 25,000  Level Jacksonville Center
Sat 02:36:32 PM 29.0936 -81.4667 338° Northwest 452 520 25,000  Level Jacksonville Center
Sat 02:37:31 PM 29.2153 -81.5150 341° North 452 520 25,000  Level Jacksonville Center
Sat 02:38:32 PM 29.3328 -81.5706 338° Northwest 457 526 25,000  Level Jacksonville Center
Sat 02:39:32 PM 29.4564 -81.6189 341° North 462 532 25,000  Level Jacksonville Center
Sat 02:40:31 PM 29.5800 -81.6628 343° North 462 532 25,000  Level Jacksonville Center
Sat 02:41:32 PM 29.6994 -81.7114 341° North 462 532 25,000  Level Jacksonville Center
Sat 02:42:31 PM 29.8189 -81.7531 343° North 455 524 25,000  Level Jacksonville Center
Sat 02:43:31 PM 29.9381 -81.7900 345° North 443 510 25,000  Level Jacksonville Center
Sat 02:44:31 PM 30.0697 -81.7958 358° North 449 517 25,000  Level Jacksonville Center
Sat 02:45:32 PM 30.2014 -81.8086 355° North 461 531 25,000  Level Jacksonville Center
Sat 02:46:31 PM 30.3350 -81.8217 355° North 467 537 25,000  Level Jacksonville Center
Sat 02:47:32 PM 30.4708 -81.8344 355° North 480 552 25,000  Level Jacksonville Center
Sat 02:48:31 PM 30.6256 -81.8544 354° North 494 568 25,000  Level Jacksonville Center
Sat 02:49:31 PM 30.7594 -81.8675 355° North 494 568 25,000  Level Jacksonville Center
Sat 02:50:31 PM 30.8908 -81.8806 355° North 486 559 25,000  Level Jacksonville Center
Sat 02:51:32 PM 31.0225 -81.8939 355° North 475 547 25,000  Level Jacksonville Center
Sat 02:52:32 PM 31.1583 -81.9094 354° North 484 557 25,000  Level Jacksonville Center
Sat 02:53:31 PM 31.2922 -81.9225 355° North 479 551 25,000  Level Jacksonville Center
Sat 02:54:31 PM 31.4050 -81.9481 349° North 468 539 25,000  Level Jacksonville Center
Sat 02:55:31 PM 31.5514 -81.9686 353° North 482 555 25,000  Level Jacksonville Center
Sat 02:56:32 PM 31.6747 -81.9797 356° North 494 568 25,000  Level Jacksonville Center
Sat 02:57:32 PM 31.8292 -81.9928 356° North 502 578 25,000  Level Jacksonville Center
Sat 02:59:17 PM 32.0847 -82.0189 355° North 502 578 25,000  Level Atlanta Center
Sat 03:00:17 PM 32.2228 -82.0306 356° North 502 578 25,000  Level Atlanta Center
Sat 03:01:17 PM 32.3544 -82.0422 356° North 497 572 25,000  Level Atlanta Center
Sat 03:02:17 PM 32.4756 -82.0494 357° North 486 559 25,000  Level Atlanta Center
Sat 03:03:17 PM 32.6072 -82.0564 357° North 480 552 25,000  Level Atlanta Center
Sat 03:04:17 PM 32.7428 -82.0483 North 480 552 25,000  Level Atlanta Center
Sat 03:05:17 PM 32.8806 -82.0428 North 480 552 25,000  Level Atlanta Center
Sat 03:06:17 PM 33.0139 -82.0372 North 485 558 25,000  Level Atlanta Center
Sat 03:07:17 PM 33.1536 -82.0292 North 485 558 25,000  Level Atlanta Center
Sat 03:08:17 PM 33.2892 -82.0233 North 490 564 25,000  Level Atlanta Center
Sat 03:09:17 PM 33.4269 -82.0178 North 490 564 25,000  Level Atlanta Center
Sat 03:10:17 PM 33.5644 -82.0094 North 490 564 25,000  Level Atlanta Center
Sat 03:11:17 PM 33.7003 -82.0039 North 495 570 25,000  Level Atlanta Center
Sat 03:12:17 PM 33.8378 -81.9981 North 495 570 25,000  Level Atlanta Center
Sat 03:13:17 PM 33.9858 -81.9894 North 495 570 25,000  Level Atlanta Center
Sat 03:14:17 PM 34.1256 -81.9836 North 495 570 25,000  Level Atlanta Center
Sat 03:15:17 PM 34.2569 -81.9778 North 489 563 25,000  Level Atlanta Center
Sat 03:16:17 PM 34.3947 -81.9694 North 489 563 25,000  Level Atlanta Center
Sat 03:17:17 PM 34.5258 -81.9636 North 478 550 25,000  Level Atlanta Center
Sat 03:18:17 PM 34.6553 -81.9606 North 473 544 25,000  Level Atlanta Center
Sat 03:19:17 PM 34.7844 -81.9522 North 468 539 25,000  Level Atlanta Center
Sat 03:20:17 PM 34.9139 -81.9467 North 457 526 25,000  Level Atlanta Center
Sat 03:21:17 PM 35.0286 -81.9461 360° North 456 525 25,000  Level Atlanta Center
Sat 03:22:17 PM 35.1683 -81.9375 North 456 525 25,000  Level Atlanta Center
Sat 03:23:17 PM 35.2975 -81.9292 North 461 531 25,000  Level Atlanta Center
Sat 03:24:17 PM 35.4289 -81.9233 North 461 531 25,000  Level Atlanta Center
Sat 03:25:17 PM 35.5622 -81.9172 North 469 540 25,000  Level Atlanta Center
Sat 03:26:17 PM 35.6956 -81.9086 North 469 540 25,000  Level Atlanta Center
Sat 03:27:17 PM 35.8269 -81.9028 North 473 544 25,000  Level Atlanta Center
Sat 03:28:17 PM 35.9478 -81.8969 North 473 544 25,000  Level Atlanta Center
Sat 03:29:17 PM 36.0772 -81.9011 359° North 473 544 25,000  Level Atlanta Center
Sat 03:30:17 PM 36.2067 -81.9056 358° North 467 537 25,000  Level Atlanta Center
Sat 03:32:45 PM 36.5297 -81.9214 358° North 466 536 25,000  Level Indianapolis Center
Sat 03:33:47 PM 36.6589 -81.9281 358° North 465 535 25,000  Level Indianapolis Center
Sat 03:34:48 PM 36.7889 -81.9350 358° North 468 539 25,000  Level Indianapolis Center
Sat 03:35:50 PM 36.9189 -81.9417 358° North 467 537 25,000  Level Indianapolis Center
Sat 03:36:51 PM 37.0686 -81.9492 358° North 464 534 25,000  Level Indianapolis Center
Sat 03:37:53 PM 37.1981 -81.9558 358° North 464 534 25,000  Level Indianapolis Center
Sat 03:38:54 PM 37.3267 -81.9622 358° North 462 532 25,000  Level Indianapolis Center
Sat 03:39:56 PM 37.4564 -81.9681 358° North 465 535 25,000  Level Indianapolis Center
Sat 03:40:57 PM 37.5858 -81.9750 358° North 465 535 25,000  Level Indianapolis Center
Sat 03:41:59 PM 37.7144 -81.9819 358° North 462 532 25,000  Level Indianapolis Center
Sat 03:43:00 PM 37.8522 -81.9889 358° North 466 536 25,000  Level Indianapolis Center
Sat 03:44:02 PM 37.9819 -81.9942 358° North 465 535 25,000  Level Indianapolis Center
Sat 03:45:03 PM 38.1117 -82.0017 357° North 466 536 25,000  Level Indianapolis Center
Sat 03:46:05 PM 38.2406 -82.0075 358° North 463 533 25,000  Level Indianapolis Center
Sat 03:47:06 PM 38.3725 -82.0156 357° North 469 540 25,000  Level Indianapolis Center
Sat 03:48:08 PM 38.5042 -82.0214 358° North 469 540 25,000  Level Indianapolis Center
Sat 03:49:09 PM 38.6336 -82.0283 358° North 461 531 25,000  Level Indianapolis Center
Sat 03:50:11 PM 38.7867 -82.0367 358° North 455 524 25,000  Level Indianapolis Center
Sat 03:51:12 PM 38.9142 -82.0444 357° North 454 522 25,000  Level Indianapolis Center
Sat 03:52:14 PM 39.0417 -82.0508 358° North 455 524 25,000  Level Indianapolis Center
Sat 03:53:15 PM 39.1703 -82.0547 359° North 458 527 25,000  Level Indianapolis Center
Sat 03:54:17 PM 39.3003 -82.0489 North 462 532 25,000 -341 Level Indianapolis Center
Sat 03:55:18 PM 39.4272 -82.0472 North 456 525 24,300 -492 Descending Indianapolis Center
Sat 03:56:19 PM 39.5547 -82.0431 North 457 526 24,000 -146 Descending Indianapolis Center
Sat 03:57:21 PM 39.6819 -82.0397 North 456 525 24,000  Level Indianapolis Center
Sat 03:58:22 PM 39.8222 -82.0364 North 452 520 24,000 -49 Level Indianapolis Center
Sat 03:59:24 PM 39.9506 -82.0325 North 456 525 23,900 -585 Descending Indianapolis Center
Sat 04:00:25 PM 40.0764 -82.0300 North 450 518 22,800 -1,171 Descending Indianapolis Center
Sat 04:01:27 PM 40.2000 -82.0264 North 441 507 21,500 -1,415 Descending Indianapolis Center
Sat 04:02:28 PM 40.3172 -82.0242 North 428 493 19,900 -1,707 Descending Indianapolis Center
Sat 04:03:30 PM 40.4350 -82.0206 North 421 484 18,000 -1,714 Descending Indianapolis Center
Sat 04:03:45 PM 40.4750 -82.0214 359° North 415 478 17,700 -1,680 Descending Cleveland Center
Sat 04:04:45 PM 40.5858 -81.9967 10° North 402 463 15,900 -1,900 Descending Cleveland Center
Sat 04:05:45 PM 40.6786 -81.9081 36° Northeast 392 451 13,900 -1,950 Descending Cleveland Center
Sat 04:06:45 PM 40.7672 -81.8194 37° Northeast 392 451 12,000 -1,864 Descending Cleveland Center
Sat 04:07:28 PM 40.8239 -81.7658 36° Northeast 388 447 10,700 -1,700 Descending Cleveland Center
Sat 04:07:45 PM 40.8492 -81.7386 39° Northeast 387 445 10,300 -1,135 Descending Cleveland Center
Sat 04:08:05 PM 40.8767 -81.7117 37° Northeast 370 426 10,000 -300 Descending Cleveland Center
Sat 04:08:45 PM 40.9314 -81.6550 38° Northeast 375 432 10,000  Level Cleveland Center
Sat 04:09:06 PM 40.9608 -81.6308 32° Northeast 367 422 10,000  Level Cleveland Center
Sat 04:09:45 PM 41.0150 -81.6289 North 347 399 10,000  Level Cleveland Center
Sat 04:10:06 PM 41.0567 -81.6433 345° North 337 388 10,000  Level Cleveland Center
Sat 04:10:45 PM 41.1086 -81.6469 357° North 330 380 10,000  Level Cleveland Center
Sat 04:11:01 PM 41.1336 -81.6528 350° North 316 364 10,000 -1,200 Level Cleveland Center
Sat 04:11:45 PM 41.1856 -81.6592 355° North 307 353 8,800 -2,239 Descending Cleveland Center
Sat 04:12:08 PM 41.2211 -81.6653 353° North 245 282 7,500 -2,600 Descending Cleveland Center
Sat 04:12:45 PM 41.2564 -81.6714 353° North 270 311 6,200 -2,066 Descending Cleveland Center
Sat 04:13:09 PM 41.2939 -81.6775 353° North 267 307 5,400 -2,000 Descending Cleveland Center
Sat 04:13:45 PM 41.3356 -81.6864 351° North 260 299 4,200 -2,111 Descending Cleveland Center
Sat 04:14:03 PM 41.3564 -81.6925 348° North 251 289 3,500 -1,200 Descending Cleveland Center
Sat 04:14:45 PM 41.3981 -81.6986 354° North 242 278 3,000 -493 Descending Cleveland Center
Sat 04:15:16 PM 41.4311 -81.7103 345° North 203 234 2,900 -194 Descending Cleveland Center

Login

Don't have an account? Register now (free) for customized features, flight alerts, and more!